createdAt,value
2019-04-25T00:01:03.489Z,90.60
2019-04-25T00:03:42.552Z,90.60
2019-04-25T00:06:14.324Z,90.60
2019-04-25T00:08:45.313Z,90.60
2019-04-25T00:11:15.892Z,90.60
2019-04-25T00:13:46.195Z,90.70
2019-04-25T00:16:21.164Z,90.70
2019-04-25T00:19:04.118Z,90.70
2019-04-25T00:21:51.736Z,90.70
2019-04-25T00:24:26.834Z,90.80
2019-04-25T00:26:57.138Z,90.80
2019-04-25T00:29:27.984Z,90.80
2019-04-25T00:31:58.648Z,90.80
2019-04-25T00:34:29.044Z,90.90
2019-04-25T00:36:59.856Z,90.90
2019-04-25T00:39:31.967Z,90.90
2019-04-25T00:42:02.551Z,91.00
2019-04-25T00:44:32.874Z,91.00
2019-04-25T00:47:03.181Z,91.10
2019-04-25T00:49:33.504Z,91.00
2019-04-25T00:52:03.951Z,91.20
2019-04-25T00:54:37.669Z,91.60
2019-04-25T00:57:07.967Z,91.40
2019-04-25T00:59:41.737Z,91.30
2019-04-25T01:02:12.506Z,91.40
2019-04-25T01:04:43.017Z,91.50
2019-04-25T01:07:15.380Z,91.50
2019-04-25T01:09:53.641Z,91.60
2019-04-25T01:12:24.811Z,91.60
2019-04-25T01:14:57.054Z,91.60
2019-04-25T01:17:28.360Z,91.60
2019-04-25T01:19:58.752Z,91.70
2019-04-25T01:22:29.062Z,91.70
2019-04-25T01:24:59.492Z,91.80
2019-04-25T01:27:29.816Z,91.70
2019-04-25T01:30:00.206Z,91.80
2019-04-25T01:32:33.490Z,91.90
2019-04-25T01:35:23.801Z,92.00
2019-04-25T01:38:11.717Z,91.90
2019-04-25T01:40:47.114Z,92.00
2019-04-25T01:43:23.347Z,92.20
2019-04-25T01:45:55.981Z,92.20
2019-04-25T01:48:26.350Z,92.20
2019-04-25T01:50:56.702Z,92.40
2019-04-25T01:53:27.498Z,92.30
2019-04-25T01:56:04.143Z,92.40
2019-04-25T01:58:31.153Z,92.50
2019-04-25T02:01:01.707Z,92.60
2019-04-25T02:03:32.083Z,92.70
2019-04-25T02:06:04.923Z,92.70
2019-04-25T02:08:35.737Z,92.80
2019-04-25T02:11:20.161Z,92.80
2019-04-25T02:13:51.436Z,92.80
2019-04-25T02:16:21.859Z,92.80
2019-04-25T02:18:54.212Z,92.80
2019-04-25T02:21:24.368Z,93.00
2019-04-25T02:23:55.774Z,93.20
2019-04-25T02:26:26.784Z,93.30
2019-04-25T02:28:57.340Z,93.40
2019-04-25T02:31:27.731Z,93.40
2019-04-25T02:34:00.732Z,93.70
2019-04-25T02:36:29.903Z,93.70
2019-04-25T02:39:03.265Z,93.80
2019-04-25T02:41:34.616Z,93.70
2019-04-25T02:44:09.699Z,93.80
2019-04-25T02:46:44.443Z,93.70
2019-04-25T02:49:29.314Z,93.80
2019-04-25T02:52:01.251Z,93.90
2019-04-25T02:54:31.753Z,94.00
2019-04-25T02:57:02.120Z,94.00
2019-04-25T02:59:34.605Z,94.10
2019-04-25T03:02:08.467Z,94.10
2019-04-25T03:04:44.496Z,94.30
2019-04-25T03:07:17.470Z,94.30
2019-04-25T03:09:46.992Z,94.40
2019-04-25T03:12:29.125Z,94.50
2019-04-25T03:14:58.295Z,94.60
2019-04-25T03:17:28.693Z,94.70
2019-04-25T03:20:09.577Z,94.80
2019-04-25T03:22:38.569Z,94.70
2019-04-25T03:25:13.023Z,94.90
2019-04-25T03:27:41.292Z,94.90
2019-04-25T03:30:17.202Z,94.90
2019-04-25T03:32:45.588Z,94.80
2019-04-25T03:35:16.611Z,94.80
2019-04-25T03:37:47.592Z,95.00
2019-04-25T03:40:17.818Z,95.10
2019-04-25T03:42:48.459Z,95.20
2019-04-25T03:45:18.726Z,95.20
2019-04-25T03:47:49.140Z,95.30
2019-04-25T03:50:19.579Z,95.30
2019-04-25T03:52:49.879Z,95.30
2019-04-25T03:55:21.793Z,95.40
2019-04-25T03:57:53.819Z,95.40
2019-04-25T04:00:24.192Z,95.70
2019-04-25T04:02:55.407Z,96.00
2019-04-25T04:05:25.864Z,96.30
2019-04-25T04:07:56.198Z,96.20
2019-04-25T04:10:27.490Z,96.30
2019-04-25T04:12:57.922Z,96.00
2019-04-25T04:15:28.376Z,96.20
2019-04-25T04:18:07.222Z,96.20
2019-04-25T04:20:45.389Z,96.30
2019-04-25T04:23:23.279Z,96.00
2019-04-25T04:25:54.626Z,95.80
2019-04-25T04:28:38.255Z,95.70
2019-04-25T04:31:08.537Z,95.70
2019-04-25T04:33:38.857Z,95.60
2019-04-25T04:36:09.350Z,95.80
2019-04-25T04:38:39.611Z,95.70
2019-04-25T04:41:10.254Z,95.80
2019-04-25T04:43:40.592Z,95.90
2019-04-25T04:46:24.025Z,95.60
2019-04-25T04:48:55.371Z,95.60
2019-04-25T04:51:25.792Z,95.60
2019-04-25T04:53:56.236Z,95.50
2019-04-25T04:56:26.611Z,95.40
2019-04-25T04:58:57.822Z,95.50
2019-04-25T05:01:29.714Z,95.40
2019-04-25T05:04:10.676Z,95.30
2019-04-25T05:06:43.713Z,95.20
2019-04-25T05:09:16.485Z,95.20
2019-04-25T05:11:47.220Z,95.00
2019-04-25T05:14:17.699Z,94.90
2019-04-25T05:16:49.577Z,94.70
2019-04-25T05:19:20.171Z,94.70
2019-04-25T05:21:50.405Z,94.60
2019-04-25T05:24:21.017Z,94.50
2019-04-25T05:26:51.869Z,94.60
2019-04-25T05:29:24.081Z,94.50
2019-04-25T05:31:54.884Z,94.30
2019-04-25T05:34:25.956Z,94.40
2019-04-25T05:36:56.444Z,94.40
2019-04-25T05:39:26.691Z,94.10
2019-04-25T05:42:02.032Z,94.10
2019-04-25T05:44:32.261Z,94.00
2019-04-25T05:47:05.917Z,94.00
2019-04-25T05:49:36.415Z,93.80
2019-04-25T05:52:06.823Z,93.70
2019-04-25T05:54:37.131Z,93.50
2019-04-25T05:57:07.418Z,93.20
2019-04-25T05:59:38.428Z,93.00
2019-04-25T06:02:09.672Z,92.90
2019-04-25T06:04:39.982Z,92.80
2019-04-25T06:07:10.296Z,92.60
2019-04-25T06:09:44.238Z,92.50
2019-04-25T06:12:30.118Z,92.50
2019-04-25T06:15:00.599Z,92.30
2019-04-25T06:17:47.999Z,92.20
2019-04-25T06:20:23.591Z,92.20
2019-04-25T06:22:58.577Z,92.10
2019-04-25T06:25:34.901Z,91.90
2019-04-25T06:28:03.791Z,91.50
2019-04-25T06:30:35.200Z,91.00
2019-04-25T06:33:07.308Z,90.80
2019-04-25T06:35:37.624Z,90.70
2019-04-25T06:38:07.898Z,90.80
2019-04-25T06:40:38.209Z,90.70
2019-04-25T06:43:08.813Z,90.30
2019-04-25T06:45:57.173Z,90.20
2019-04-25T06:48:29.748Z,90.20
2019-04-25T06:51:01.165Z,90.20
2019-04-25T06:53:32.982Z,90.10
2019-04-25T06:56:03.999Z,89.80
2019-04-25T06:58:34.590Z,88.30
2019-04-25T07:01:08.153Z,88.50
2019-04-25T07:03:37.576Z,88.50
2019-04-25T07:06:08.024Z,88.80
2019-04-25T07:08:38.298Z,87.20
2019-04-25T07:11:13.896Z,86.10
2019-04-25T07:13:44.375Z,85.10
2019-04-25T07:16:14.696Z,83.60
2019-04-25T07:18:45.436Z,83.20
2019-04-25T07:21:16.141Z,80.90
2019-04-25T07:23:46.630Z,82.00
2019-04-25T07:26:18.659Z,78.60
2019-04-25T07:28:56.827Z,78.30
2019-04-25T07:31:28.810Z,77.90
2019-04-25T07:34:00.635Z,70.20
2019-04-25T07:36:31.029Z,70.70
2019-04-25T07:39:08.096Z,70.10
2019-04-25T07:41:37.121Z,69.20
2019-04-25T07:44:07.696Z,67.50
2019-04-25T07:46:39.961Z,66.40
2019-04-25T07:49:10.648Z,65.10
2019-04-25T07:51:40.845Z,65.60
2019-04-25T07:54:11.342Z,65.80
2019-04-25T07:56:41.609Z,64.10
2019-04-25T07:59:13.801Z,62.70
2019-04-25T08:01:49.300Z,61.70
2019-04-25T08:04:20.649Z,61.00
2019-04-25T08:06:50.957Z,59.70
2019-04-25T08:09:21.499Z,59.70
2019-04-25T08:11:53.174Z,59.00
2019-04-25T08:14:25.831Z,57.40
2019-04-25T08:17:04.265Z,57.60
2019-04-25T08:19:35.538Z,58.50
2019-04-25T08:22:06.330Z,58.60
2019-04-25T08:24:37.822Z,58.40
2019-04-25T08:27:08.417Z,58.10
2019-04-25T08:29:39.756Z,58.40
2019-04-25T08:32:10.675Z,59.80
2019-04-25T08:34:40.965Z,59.70
2019-04-25T08:37:18.241Z,58.70
2019-04-25T08:39:45.072Z,60.00
2019-04-25T08:42:15.317Z,59.70
2019-04-25T08:44:45.614Z,60.30
2019-04-25T08:47:15.969Z,56.70
2019-04-25T08:49:49.491Z,57.20
2019-04-25T08:52:19.996Z,58.20
2019-04-25T08:54:57.476Z,58.60
2019-04-25T08:57:45.116Z,58.60
2019-04-25T09:00:20.576Z,59.00
2019-04-25T09:02:52.448Z,58.50
2019-04-25T09:05:27.688Z,58.10
2019-04-25T09:07:57.915Z,57.90
2019-04-25T09:10:28.488Z,57.10
2019-04-25T09:12:59.021Z,57.30
2019-04-25T09:15:30.320Z,57.50
2019-04-25T09:18:00.579Z,57.70
2019-04-25T09:20:30.925Z,56.60
2019-04-25T09:23:01.521Z,56.80
2019-04-25T09:25:34.537Z,56.40
2019-04-25T09:28:04.884Z,56.80
2019-04-25T09:30:36.795Z,57.50
2019-04-25T09:33:07.508Z,57.50
2019-04-25T09:35:38.100Z,57.10
2019-04-25T09:38:08.517Z,57.30
2019-04-25T09:40:39.531Z,57.60
2019-04-25T09:43:09.924Z,56.60
2019-04-25T09:45:53.935Z,56.60
2019-04-25T09:48:29.021Z,56.90
2019-04-25T09:51:01.155Z,55.50
2019-04-25T09:53:31.429Z,54.70
2019-04-25T09:56:12.007Z,54.50
2019-04-25T09:58:55.777Z,54.40
2019-04-25T10:01:25.463Z,53.10
2019-04-25T10:03:56.139Z,53.80
2019-04-25T10:06:26.398Z,54.20
2019-04-25T10:08:56.677Z,54.30
2019-04-25T10:11:26.951Z,53.90
2019-04-25T10:14:00.752Z,53.30
2019-04-25T10:16:31.066Z,53.90
2019-04-25T10:19:03.348Z,54.30
2019-04-25T10:21:34.317Z,54.10
2019-04-25T10:24:04.800Z,52.90
2019-04-25T10:26:35.105Z,53.00
2019-04-25T10:29:08.722Z,51.30
2019-04-25T10:31:39.851Z,51.30
2019-04-25T10:34:11.063Z,50.80
2019-04-25T10:36:42.263Z,50.80
2019-04-25T10:39:14.604Z,49.70
2019-04-25T10:41:46.687Z,50.00
2019-04-25T10:44:16.868Z,51.10
2019-04-25T10:46:48.267Z,51.30
2019-04-25T10:49:18.882Z,50.20
2019-04-25T10:51:49.942Z,51.50
2019-04-25T10:54:20.164Z,51.00
2019-04-25T10:56:50.478Z,50.50
2019-04-25T10:59:21.270Z,51.00
2019-04-25T11:01:51.558Z,51.00
2019-04-25T11:04:23.391Z,51.50
2019-04-25T11:06:55.104Z,49.60
2019-04-25T11:09:26.317Z,49.90
2019-04-25T11:11:56.622Z,50.60
2019-04-25T11:14:30.175Z,51.20
2019-04-25T11:17:01.653Z,49.60
2019-04-25T11:19:33.874Z,49.50
2019-04-25T11:22:05.196Z,49.60
2019-04-25T11:24:35.556Z,49.20
2019-04-25T11:27:06.229Z,49.20
2019-04-25T11:29:36.620Z,49.60
2019-04-25T11:32:07.017Z,50.10
2019-04-25T11:35:01.053Z,50.40
2019-04-25T11:37:23.912Z,50.00
2019-04-25T11:40:14.427Z,48.80
2019-04-25T11:42:46.850Z,48.90
2019-04-25T11:45:17.254Z,48.90
2019-04-25T11:47:48.368Z,48.50
2019-04-25T11:50:19.984Z,48.80
2019-04-25T11:52:50.498Z,49.40
2019-04-25T11:55:21.244Z,49.50
2019-04-25T11:57:53.183Z,48.50
2019-04-25T12:00:26.101Z,48.50
2019-04-25T12:02:56.597Z,49.10
2019-04-25T12:05:27.161Z,48.80
2019-04-25T12:07:57.644Z,49.00
2019-04-25T12:10:28.695Z,47.40
2019-04-25T12:12:58.985Z,47.10
2019-04-25T12:15:29.489Z,47.40
2019-04-25T12:17:59.823Z,47.30
2019-04-25T12:20:29.993Z,47.40
2019-04-25T12:23:08.477Z,46.30
2019-04-25T12:25:33.968Z,45.40
2019-04-25T12:28:05.631Z,46.40
2019-04-25T12:30:40.050Z,49.10
2019-04-25T12:33:18.241Z,49.40
2019-04-25T12:35:40.425Z,48.10
2019-04-25T12:38:10.739Z,47.30
2019-04-25T12:40:41.033Z,46.70
2019-04-25T12:43:11.461Z,46.90
2019-04-25T12:45:49.701Z,47.80
2019-04-25T12:48:19.916Z,48.10
2019-04-25T12:50:50.280Z,48.30
2019-04-25T12:53:20.596Z,48.00
2019-04-25T12:55:51.990Z,48.10
2019-04-25T12:58:23.511Z,48.20
2019-04-25T13:00:58.180Z,47.60
2019-04-25T13:03:26.324Z,47.90
2019-04-25T13:05:58.409Z,47.80
2019-04-25T13:08:28.729Z,46.80
2019-04-25T13:11:07.996Z,46.20
2019-04-25T13:13:33.995Z,46.60
2019-04-25T13:16:06.366Z,46.50
2019-04-25T13:18:36.712Z,46.50
2019-04-25T13:21:07.723Z,46.50
2019-04-25T13:23:38.203Z,45.60
2019-04-25T13:26:08.561Z,45.80
2019-04-25T13:28:44.175Z,46.00
2019-04-25T13:31:25.836Z,46.00
2019-04-25T13:33:58.872Z,45.60
2019-04-25T13:36:29.571Z,45.40
2019-04-25T13:39:02.167Z,45.70
2019-04-25T13:41:34.096Z,45.30
2019-04-25T13:44:05.170Z,45.10
2019-04-25T13:46:35.647Z,45.00
2019-04-25T13:49:07.270Z,44.80
2019-04-25T13:51:37.512Z,44.00
2019-04-25T13:54:10.749Z,44.00
2019-04-25T13:56:40.652Z,44.20
2019-04-25T13:59:11.490Z,44.60
2019-04-25T14:01:44.186Z,44.40
2019-04-25T14:04:15.319Z,44.50
2019-04-25T14:06:45.607Z,43.50
2019-04-25T14:09:17.114Z,43.20
2019-04-25T14:11:48.166Z,43.40
2019-04-25T14:14:18.443Z,42.60
2019-04-25T14:16:54.623Z,41.50
2019-04-25T14:19:44.247Z,41.70
2019-04-25T14:22:15.001Z,42.60
2019-04-25T14:24:47.436Z,43.20
2019-04-25T14:27:26.280Z,42.30
2019-04-25T14:29:56.647Z,41.80
2019-04-25T14:32:28.742Z,41.90
2019-04-25T14:35:00.692Z,42.60
2019-04-25T14:37:38.382Z,42.50
2019-04-25T14:40:04.058Z,42.30
2019-04-25T14:42:34.715Z,42.40
2019-04-25T14:45:07.229Z,42.10
2019-04-25T14:47:37.677Z,42.70
2019-04-25T14:50:09.376Z,44.00
2019-04-25T14:52:40.751Z,44.30
2019-04-25T14:55:24.959Z,44.60
2019-04-25T14:57:57.281Z,44.40
2019-04-25T15:00:29.147Z,43.60
2019-04-25T15:02:59.552Z,43.00
2019-04-25T15:05:30.954Z,41.80
2019-04-25T15:08:01.363Z,42.60
2019-04-25T15:10:31.914Z,42.90
2019-04-25T15:13:02.250Z,43.40
2019-04-25T15:15:33.806Z,42.60
2019-04-25T15:18:04.324Z,41.50
2019-04-25T15:20:34.892Z,41.00
2019-04-25T15:23:05.352Z,41.20
2019-04-25T15:25:36.863Z,40.70
2019-04-25T15:28:07.317Z,41.30
2019-04-25T15:30:39.041Z,41.60
2019-04-25T15:33:09.317Z,41.90
2019-04-25T15:35:45.047Z,41.50
2019-04-25T15:38:25.757Z,41.70
2019-04-25T15:41:06.441Z,41.90
2019-04-25T15:43:41.738Z,41.90
2019-04-25T15:46:26.100Z,41.70
2019-04-25T15:48:57.528Z,41.80
2019-04-25T15:51:27.935Z,41.60
2019-04-25T15:53:58.452Z,41.10
2019-04-25T15:56:28.806Z,40.90
2019-04-25T15:58:59.091Z,40.30
2019-04-25T16:01:30.338Z,40.20
2019-04-25T16:04:00.643Z,40.10
2019-04-25T16:06:31.888Z,40.00
2019-04-25T16:09:02.621Z,40.20
2019-04-25T16:11:35.108Z,40.00
2019-04-25T16:14:06.585Z,39.70
2019-04-25T16:16:36.911Z,39.50
2019-04-25T16:19:07.697Z,39.10
2019-04-25T16:21:38.006Z,39.10
2019-04-25T16:24:08.617Z,38.90
2019-04-25T16:26:38.951Z,38.60
2019-04-25T16:29:09.239Z,39.10
2019-04-25T16:31:39.616Z,50.50
2019-04-25T16:34:09.930Z,46.10
2019-04-25T16:36:40.445Z,43.90
2019-04-25T16:39:12.404Z,42.00
2019-04-25T16:41:44.340Z,41.50
2019-04-25T16:44:16.414Z,41.50
2019-04-25T16:46:46.740Z,40.70
2019-04-25T16:49:17.022Z,40.20
2019-04-25T16:51:47.315Z,39.50
2019-04-25T16:54:17.700Z,40.10
2019-04-25T16:56:48.252Z,39.20
2019-04-25T16:59:18.522Z,38.90
2019-04-25T17:01:49.577Z,37.80
2019-04-25T17:04:20.012Z,36.70
2019-04-25T17:06:51.029Z,35.50
2019-04-25T17:09:21.317Z,34.20
2019-04-25T17:11:51.871Z,33.50
2019-04-25T17:14:26.833Z,32.90
2019-04-25T17:17:05.060Z,33.10
2019-04-25T17:19:36.931Z,32.70
2019-04-25T17:22:07.380Z,32.80
2019-04-25T17:24:37.983Z,33.10
2019-04-25T17:27:08.309Z,33.30
2019-04-25T17:29:40.085Z,34.50
2019-04-25T17:32:12.223Z,34.40
2019-04-25T17:34:44.095Z,34.40
2019-04-25T17:37:21.997Z,35.30
2019-04-25T17:39:56.459Z,36.00
2019-04-25T17:42:26.757Z,36.70
2019-04-25T17:44:57.045Z,37.30
2019-04-25T17:47:27.433Z,38.30
2019-04-25T17:49:57.761Z,39.00
2019-04-25T17:52:28.054Z,40.20
2019-04-25T17:54:58.510Z,40.70
2019-04-25T17:57:30.244Z,41.90
2019-04-25T18:00:00.506Z,43.10
2019-04-25T18:02:33.539Z,44.20
2019-04-25T18:05:03.935Z,45.20
2019-04-25T18:07:34.396Z,46.30
2019-04-25T18:10:08.819Z,47.60
2019-04-25T18:12:40.070Z,48.90
2019-04-25T18:15:13.935Z,49.30
2019-04-25T18:17:44.511Z,50.10
2019-04-25T18:20:16.584Z,50.70
2019-04-25T18:22:48.446Z,51.50
2019-04-25T18:25:24.186Z,53.10
2019-04-25T18:28:12.339Z,52.70
2019-04-25T18:30:43.830Z,53.50
2019-04-25T18:33:18.460Z,54.00
2019-04-25T18:35:50.360Z,54.60
2019-04-25T18:38:22.229Z,55.00
2019-04-25T18:40:54.617Z,55.20
2019-04-25T18:43:29.057Z,55.80
2019-04-25T18:46:01.160Z,56.20
2019-04-25T18:48:31.470Z,56.60
2019-04-25T18:51:01.838Z,57.10
2019-04-25T18:53:39.550Z,57.50
2019-04-25T18:56:16.971Z,57.80
2019-04-25T18:59:04.859Z,58.00
2019-04-25T19:01:39.619Z,58.10
2019-04-25T19:04:17.252Z,58.50
2019-04-25T19:06:56.184Z,58.70
2019-04-25T19:09:21.231Z,58.90
2019-04-25T19:11:51.601Z,59.50
2019-04-25T19:14:22.052Z,59.60
2019-04-25T19:19:48.173Z,60.90
2019-04-25T19:24:07.923Z,61.90
2019-04-25T19:26:40.712Z,62.80
2019-04-25T19:29:11.345Z,63.50
2019-04-25T19:31:42.172Z,64.30
2019-04-25T19:34:12.465Z,64.90
2019-04-25T19:36:44.789Z,65.50
2019-04-25T19:39:16.752Z,66.00
2019-04-25T19:41:49.682Z,66.70
2019-04-25T19:44:21.593Z,67.20
2019-04-25T19:46:52.181Z,67.20
2019-04-25T19:49:22.459Z,67.40
2019-04-25T19:51:52.873Z,67.70
2019-04-25T19:54:23.145Z,67.90
2019-04-25T19:56:53.524Z,68.50
2019-04-25T19:59:23.791Z,68.80
2019-04-25T20:01:58.403Z,68.80
2019-04-25T20:04:51.498Z,69.00
2019-04-25T20:07:24.392Z,68.70
2019-04-25T20:10:02.927Z,68.90
2019-04-25T20:12:39.356Z,68.80
2019-04-25T20:15:09.852Z,68.60
2019-04-25T20:17:40.355Z,69.10
2019-04-25T20:20:11.206Z,69.10
2019-04-25T20:22:41.496Z,69.30
2019-04-25T20:25:12.480Z,69.50
2019-04-25T20:27:42.812Z,69.80
2019-04-25T20:30:14.613Z,70.50
2019-04-25T20:32:46.246Z,70.40
2019-04-25T20:35:16.826Z,70.00
2019-04-25T20:37:47.477Z,70.00
2019-04-25T20:40:20.624Z,70.10
2019-04-25T20:42:51.763Z,70.40
2019-04-25T20:45:28.244Z,70.50
2019-04-25T20:47:58.672Z,70.50
2019-04-25T20:50:28.936Z,70.50
2019-04-25T20:52:59.249Z,70.90
2019-04-25T20:55:33.863Z,70.60
2019-04-25T20:58:04.175Z,70.80
2019-04-25T21:00:43.964Z,71.70
2019-04-25T21:03:14.283Z,71.30
2019-04-25T21:05:45.652Z,71.50
2019-04-25T21:08:16.099Z,71.80
2019-04-25T21:10:46.426Z,72.20
2019-04-25T21:13:18.340Z,72.50
2019-04-25T21:15:54.107Z,72.80
2019-04-25T21:18:26.129Z,73.30
2019-04-25T21:20:57.133Z,73.40
2019-04-25T21:23:27.582Z,73.70
2019-04-25T21:25:58.885Z,74.20
2019-04-25T21:28:29.538Z,74.30
2019-04-25T21:31:02.068Z,74.70
2019-04-25T21:33:41.957Z,75.00
2019-04-25T21:36:19.284Z,75.30
2019-04-25T21:38:58.360Z,75.50
2019-04-25T21:41:36.655Z,75.80
2019-04-25T21:44:08.047Z,76.30
2019-04-25T21:46:38.329Z,76.70
2019-04-25T21:49:09.087Z,77.10
2019-04-25T21:51:39.374Z,77.50
2019-04-25T21:54:09.692Z,77.80
2019-04-25T21:56:40.090Z,78.20
2019-04-25T21:59:10.793Z,78.60
2019-04-25T22:01:42.841Z,78.60
2019-04-25T22:04:13.134Z,78.70
2019-04-25T22:06:43.949Z,78.70
2019-04-25T22:09:21.259Z,79.10
2019-04-25T22:11:51.947Z,79.10
2019-04-25T22:14:22.790Z,80.10
2019-04-25T22:16:53.628Z,79.50
2019-04-25T22:19:39.149Z,79.80
2019-04-25T22:22:09.730Z,80.00
2019-04-25T22:24:39.992Z,80.30
2019-04-25T22:27:11.888Z,80.50
2019-04-25T22:29:43.744Z,80.90
2019-04-25T22:32:31.487Z,81.00
2019-04-25T22:35:03.835Z,81.20
2019-04-25T22:37:34.087Z,81.40
2019-04-25T22:40:05.586Z,81.70
2019-04-25T22:42:35.847Z,81.90
2019-04-25T22:45:07.966Z,81.90
2019-04-25T22:47:38.361Z,82.10
2019-04-25T22:50:08.837Z,82.20
2019-04-25T22:52:39.895Z,82.40
2019-04-25T22:55:10.221Z,82.30
2019-04-25T22:57:40.814Z,82.20
2019-04-25T23:00:12.903Z,82.30
2019-04-25T23:02:46.569Z,82.40
2019-04-25T23:05:23.088Z,82.50
2019-04-25T23:07:53.775Z,82.60
2019-04-25T23:10:24.528Z,82.80
2019-04-25T23:12:55.258Z,83.00
2019-04-25T23:15:26.588Z,83.40
2019-04-25T23:17:57.592Z,83.50
2019-04-25T23:20:28.075Z,83.40
2019-04-25T23:22:58.379Z,83.30
2019-04-25T23:25:31.377Z,83.60
2019-04-25T23:28:05.225Z,83.50
2019-04-25T23:30:40.329Z,83.50
2019-04-25T23:33:10.671Z,83.90
2019-04-25T23:35:42.400Z,84.10
2019-04-25T23:38:14.714Z,84.20
2019-04-25T23:40:44.872Z,84.60
2019-04-25T23:43:15.855Z,84.60
2019-04-25T23:45:46.306Z,84.60
2019-04-25T23:48:16.923Z,84.70
2019-04-25T23:50:47.177Z,84.60
2019-04-25T23:53:18.023Z,84.90
2019-04-25T23:55:48.284Z,85.10
2019-04-25T23:58:18.553Z,85.30
